Time;durP1;ratioP1;P1;durP2;ratioP2;P2;SDS_P1;SDS_P2;PMS_P1;PMS_P2;Temp;Humidity;BMP_temperature;BMP_pressure;BME280_temperature;BME280_humidity;BME280_pressure;Samples;Min_cycle;Max_cycle;Signal;HPM_P1;HPM_P2
2022/10/07 00:01:23;;;;;;;26.30;13.00;;;;;;;10.95;82.00;102355.98;105316;1273;58793;-78
2022/10/07 00:03:52;;;;;;;22.00;13.10;;;;;;;10.97;81.89;102355.17;105372;1269;59031;-78
2022/10/07 00:06:21;;;;;;;21.20;12.50;;;;;;;11.00;82.23;102355.92;105387;1271;71631;-79
2022/10/07 00:08:52;;;;;;;24.10;12.10;;;;;;;10.99;82.23;102354.21;105248;1269;61587;-78
2022/10/07 00:11:27;;;;;;;22.50;12.80;;;;;;;11.02;82.45;102353.55;105389;1268;70383;-79
2022/10/07 00:13:59;;;;;;;19.80;12.80;;;;;;;11.03;83.33;102351.91;105301;1267;74099;-79
2022/10/07 00:16:34;;;;;;;24.30;13.30;;;;;;;11.05;83.75;102347.81;105358;1272;63170;-80
2022/10/07 00:19:09;;;;;;;26.10;12.40;;;;;;;11.06;83.57;102342.69;105281;1278;58913;-82
2022/10/07 00:21:39;;;;;;;27.70;13.50;;;;;;;11.06;83.40;102342.52;105480;1278;64696;-80
2022/10/07 00:24:09;;;;;;;21.50;12.70;;;;;;;11.09;83.46;102341.36;105687;1270;73680;-80
2022/10/07 00:26:38;;;;;;;23.50;12.60;;;;;;;11.11;83.65;102340.19;105668;1272;68546;-80
2022/10/07 00:29:06;;;;;;;23.20;12.90;;;;;;;11.17;83.09;102338.70;105913;1273;63378;-80
2022/10/07 00:31:36;;;;;;;28.60;13.90;;;;;;;11.21;83.07;102340.92;106641;1276;57359;-79
2022/10/07 00:34:05;;;;;;;25.40;12.60;;;;;;;11.26;82.91;102340.52;106268;1273;60859;-79
2022/10/07 00:36:38;;;;;;;22.90;13.10;;;;;;;11.28;81.85;102341.98;105587;1270;73113;-84
2022/10/07 00:39:13;;;;;;;23.50;12.50;;;;;;;11.26;81.12;102341.77;105415;1265;71977;-80
2022/10/07 00:41:51;;;;;;;18.80;11.40;;;;;;;11.18;81.73;102336.89;105404;1272;69130;-83
2022/10/07 00:44:40;;;;;;;20.00;11.20;;;;;;;11.13;83.01;102338.51;105358;1270;73416;-81
2022/10/07 00:47:33;;;;;;;22.00;11.30;;;;;;;11.15;82.33;102342.42;105328;1277;59120;-85
2022/10/07 00:50:13;;;;;;;20.30;11.10;;;;;;;11.16;81.82;102337.86;105422;1273;60657;-81
2022/10/07 00:52:53;;;;;;;18.10;11.40;;;;;;;11.17;81.26;102339.92;105454;1266;73203;-81
2022/10/07 00:55:26;;;;;;;21.00;11.60;;;;;;;11.11;81.25;102334.98;105393;1263;72925;-80
2022/10/07 00:58:01;;;;;;;19.20;12.20;;;;;;;11.09;81.92;102337.86;105262;1265;70245;-80
2022/10/07 01:00:30;;;;;;;19.70;11.90;;;;;;;11.07;80.87;102333.77;105479;1278;74299;-83
2022/10/07 01:02:58;;;;;;;19.40;10.90;;;;;;;11.02;80.77;102336.10;105357;1272;62515;-84
2022/10/07 01:05:28;;;;;;;22.20;10.60;;;;;;;10.99;80.73;102334.52;105412;1274;60191;-82
2022/10/07 01:07:58;;;;;;;20.90;11.20;;;;;;;10.97;81.04;102333.59;105450;1272;73245;-84
2022/10/07 01:10:59;;;;;;;18.80;11.20;;;;;;;10.97;81.76;102334.42;105473;1266;72879;-85
2022/10/07 01:13:41;;;;;;;20.40;11.60;;;;;;;10.99;83.98;102328.73;105468;1275;69864;-82
2022/10/07 01:16:33;;;;;;;20.00;11.80;;;;;;;11.06;84.70;102328.06;105546;1267;73762;-86
2022/10/07 01:19:44;;;;;;;20.10;10.90;;;;;;;11.14;84.20;102325.23;105531;1271;59539;-83
2022/10/07 01:23:10;;;;;;;19.40;11.10;;;;;;;11.21;84.14;102329.59;105474;1271;61229;-82
2022/10/07 01:26:30;;;;;;;18.00;11.00;;;;;;;11.26;83.83;102329.54;105401;1263;73138;-81
2022/10/07 01:29:03;;;;;;;20.00;11.60;;;;;;;11.35;84.37;102333.44;105259;1273;72404;-84
2022/10/07 01:31:50;;;;;;;19.60;11.50;;;;;;;11.41;83.92;102337.14;105383;1276;59018;-82
2022/10/07 01:34:22;;;;;;;20.10;11.30;;;;;;;11.51;83.91;102335.79;105439;1265;73714;-82
2022/10/07 01:36:56;;;;;;;20.00;10.90;;;;;;;11.55;82.84;102336.29;105278;1270;58972;-84
2022/10/07 01:39:33;;;;;;;16.50;10.50;;;;;;;11.58;82.15;102337.33;105389;1266;59602;-81
2022/10/07 01:42:02;;;;;;;19.40;10.80;;;;;;;11.64;81.94;102338.79;105362;1268;62890;-83
2022/10/07 01:44:30;;;;;;;21.80;11.60;;;;;;;11.68;81.95;102328.27;105307;1273;71451;-83
2022/10/07 01:46:59;;;;;;;20.10;10.10;;;;;;;11.72;82.52;102327.38;105328;1269;60725;-84
2022/10/07 01:49:28;;;;;;;16.70;9.80;;;;;;;11.75;81.65;102324.25;105271;1263;65002;-81
2022/10/07 01:52:17;;;;;;;28.60;17.10;;;;;;;11.79;81.64;102327.35;105268;1268;60427;-81
2022/10/07 01:55:10;;;;;;;20.90;11.20;;;;;;;11.79;81.41;102324.39;105498;1264;61445;-80
2022/10/07 01:57:58;;;;;;;;;;;;;;;11.84;81.27;102327.47;105431;1274;63266;-82
2022/10/07 02:00:28;;;;;;;20.80;10.60;;;;;;;11.86;81.29;102329.48;105485;1266;60765;-82
2022/10/07 02:03:16;;;;;;;21.20;10.20;;;;;;;11.89;80.83;102332.79;105223;1273;70406;-82
2022/10/07 02:06:29;;;;;;;19.20;10.20;;;;;;;11.92;80.61;102334.02;105316;1271;64786;-83
2022/10/07 02:09:06;;;;;;;15.70;10.30;;;;;;;11.96;81.00;102332.26;105109;1274;59069;-83
2022/10/07 02:11:41;;;;;;;20.80;10.70;;;;;;;12.01;80.90;102333.23;105383;1270;57361;-82
2022/10/07 02:14:15;;;;;;;19.00;10.70;;;;;;;12.02;79.88;102332.67;105249;1279;62213;-85
2022/10/07 02:16:52;;;;;;;18.70;10.70;;;;;;;12.03;80.54;102332.60;105352;1276;61547;-83
2022/10/07 02:19:35;;;;;;;19.60;11.10;;;;;;;12.05;81.08;102330.95;105420;1273;68845;-85
2022/10/07 02:22:06;;;;;;;19.90;11.50;;;;;;;12.05;81.71;102335.45;105479;1276;73743;-83
2022/10/07 02:24:39;;;;;;;19.60;10.50;;;;;;;12.07;81.71;102335.88;105457;1268;62531;-84
2022/10/07 02:27:13;;;;;;;;;;;;;;;12.09;81.45;102338.40;105373;1279;60827;-84
2022/10/07 02:29:45;;;;;;;19.40;11.10;;;;;;;12.08;81.49;102339.85;105470;1276;63836;-85
2022/10/07 02:32:20;;;;;;;19.90;10.80;;;;;;;12.03;81.90;102335.91;105518;1273;62234;-81
2022/10/07 02:34:59;;;;;;;18.20;10.20;;;;;;;12.06;82.14;102335.73;105502;1270;69622;-81
2022/10/07 02:37:34;;;;;;;16.30;11.00;;;;;;;12.07;82.14;102339.51;105831;1270;74009;-82
2022/10/07 02:40:06;;;;;;;17.60;9.80;;;;;;;12.04;82.97;102342.14;105694;1276;62724;-86
2022/10/07 02:43:19;;;;;;;17.40;10.60;;;;;;;12.04;83.21;102340.92;105742;1268;58965;-85
2022/10/07 02:46:00;;;;;;;18.70;9.70;;;;;;;12.04;83.40;102343.23;105503;1275;63556;-84
2022/10/07 02:48:45;;;;;;;19.60;10.40;;;;;;;12.07;83.60;102341.84;105308;1277;70987;-85
2022/10/07 02:51:19;;;;;;;15.70;10.00;;;;;;;12.07;83.85;102344.77;105267;1275;59658;-83
2022/10/07 02:53:51;;;;;;;13.90;8.70;;;;;;;12.07;83.84;102343.38;105161;1269;62398;-82
2022/10/07 02:56:24;;;;;;;16.80;9.60;;;;;;;12.06;84.10;102345.53;105234;1276;61401;-83
2022/10/07 02:58:54;;;;;;;17.90;9.00;;;;;;;12.07;84.32;102342.00;105142;1279;59625;-80
2022/10/07 03:01:30;;;;;;;16.70;9.80;;;;;;;12.08;83.60;102342.46;105288;1272;62715;-84
2022/10/07 03:03:59;;;;;;;17.40;10.40;;;;;;;12.08;82.85;102344.88;105302;1278;73071;-85
2022/10/07 03:06:29;;;;;;;14.60;9.50;;;;;;;12.05;83.70;102342.45;105429;1278;59652;-80
2022/10/07 03:08:59;;;;;;;15.40;9.70;;;;;;;12.05;84.36;102348.21;105349;1267;62375;-84
2022/10/07 03:11:28;;;;;;;16.80;9.70;;;;;;;12.04;84.76;102342.30;105183;1275;62660;-82
2022/10/07 03:13:57;;;;;;;18.30;9.70;;;;;;;12.05;85.39;102347.89;105302;1276;60752;-83
2022/10/07 03:16:26;;;;;;;18.30;9.50;;;;;;;12.04;85.08;102346.52;105294;1277;62589;-84
2022/10/07 03:18:55;;;;;;;16.70;9.50;;;;;;;12.06;85.19;102340.80;105317;1265;70145;-84
2022/10/07 03:21:27;;;;;;;16.30;9.20;;;;;;;12.07;85.13;102343.38;105264;1265;70731;-84
2022/10/07 03:23:59;;;;;;;17.70;9.70;;;;;;;12.06;85.36;102341.14;105327;1270;62997;-84
2022/10/07 03:26:34;;;;;;;16.70;10.00;;;;;;;12.05;85.57;102339.80;105351;1274;57418;-79
2022/10/07 03:29:04;;;;;;;16.50;9.30;;;;;;;12.07;85.81;102341.45;105388;1276;59048;-77
2022/10/07 03:31:33;;;;;;;16.60;10.10;;;;;;;12.08;85.45;102342.99;105382;1270;73462;-79
2022/10/07 03:34:01;;;;;;;17.70;9.70;;;;;;;12.09;85.65;102350.08;105398;1270;71347;-76
2022/10/07 03:36:31;;;;;;;18.80;10.30;;;;;;;12.08;86.42;102345.96;105298;1275;59596;-79
2022/10/07 03:39:00;;;;;;;16.50;9.00;;;;;;;12.08;86.51;102344.53;105529;1266;63222;-77
2022/10/07 03:41:30;;;;;;;19.60;10.00;;;;;;;12.08;86.34;102343.31;105304;1267;58811;-77
2022/10/07 03:43:59;;;;;;;18.60;10.30;;;;;;;12.13;86.24;102340.10;105386;1272;60412;-74
2022/10/07 03:46:29;;;;;;;18.10;10.90;;;;;;;12.15;86.43;102336.33;105444;1271;62785;-71
2022/10/07 03:48:58;;;;;;;17.00;10.30;;;;;;;12.18;86.20;102339.85;105269;1278;70601;-71
2022/10/07 03:51:27;;;;;;;15.60;9.40;;;;;;;12.19;86.64;102340.83;105295;1271;60697;-71
2022/10/07 03:53:58;;;;;;;24.90;10.90;;;;;;;12.24;86.11;102340.57;105331;1266;63500;-71
2022/10/07 03:56:29;;;;;;;21.80;10.30;;;;;;;12.28;86.45;102342.42;105413;1271;63164;-71
2022/10/07 03:59:00;;;;;;;18.50;10.20;;;;;;;12.29;86.36;102339.23;105470;1271;59428;-72
2022/10/07 04:01:30;;;;;;;25.30;11.10;;;;;;;12.30;86.24;102337.46;105378;1273;64037;-70
2022/10/07 04:03:59;;;;;;;20.60;11.80;;;;;;;12.27;86.72;102337.42;105459;1270;72090;-71
2022/10/07 04:06:30;;;;;;;26.80;11.70;;;;;;;12.24;86.53;102336.90;105431;1270;70676;-71
2022/10/07 04:09:02;;;;;;;19.70;10.70;;;;;;;12.19;85.52;102342.03;105489;1266;63465;-72
2022/10/07 04:11:30;;;;;;;19.80;10.50;;;;;;;12.13;84.74;102340.63;105326;1266;61995;-71
2022/10/07 04:13:59;;;;;;;19.00;10.60;;;;;;;12.04;86.42;102339.70;105436;1275;60174;-71
2022/10/07 04:16:29;;;;;;;19.70;10.70;;;;;;;11.96;87.58;102340.62;105499;1270;62585;-70
2022/10/07 04:19:04;;;;;;;20.10;10.60;;;;;;;11.82;88.55;102341.52;105518;1267;61838;-69
2022/10/07 04:21:33;;;;;;;17.50;10.70;;;;;;;11.75;89.07;102340.83;105491;1274;69543;-71
2022/10/07 04:24:02;;;;;;;15.90;10.00;;;;;;;11.69;89.06;102343.05;105516;1267;62265;-78
2022/10/07 04:26:31;;;;;;;23.50;10.50;;;;;;;11.63;89.50;102340.77;105469;1270;59127;-76
2022/10/07 04:29:00;;;;;;;20.80;11.00;;;;;;;11.55;90.09;102338.69;105449;1266;59106;-73
2022/10/07 04:31:28;;;;;;;20.00;10.10;;;;;;;11.48;90.79;102342.36;105450;1268;72743;-73
2022/10/07 04:34:01;;;;;;;27.50;11.30;;;;;;;11.44;91.05;102341.70;105525;1266;71413;-71
2022/10/07 04:36:36;;;;;;;25.40;11.90;;;;;;;11.40;91.41;102345.55;105413;1274;70681;-71
2022/10/07 04:39:13;;;;;;;17.40;11.30;;;;;;;11.35;91.41;102347.71;105546;1266;74880;-72
2022/10/07 04:41:55;;;;;;;24.20;11.60;;;;;;;11.30;91.36;102348.32;105366;1264;58939;-72
2022/10/07 04:44:27;;;;;;;22.90;12.00;;;;;;;11.25;91.64;102346.33;105404;1270;61167;-70
2022/10/07 04:47:04;;;;;;;27.90;12.10;;;;;;;11.24;91.99;102345.16;105422;1270;73521;-73
2022/10/07 04:49:33;;;;;;;23.60;11.50;;;;;;;11.25;91.60;102345.62;105410;1270;71055;-77
2022/10/07 04:52:03;;;;;;;21.10;12.50;;;;;;;11.26;91.59;102345.59;105581;1269;59618;-75
2022/10/07 04:54:35;;;;;;;25.10;11.80;;;;;;;11.26;91.52;102345.02;105489;1270;74069;-78
2022/10/07 04:57:03;;;;;;;24.80;12.30;;;;;;;11.31;91.92;102345.33;105450;1273;62799;-76
2022/10/07 04:59:32;;;;;;;21.80;11.90;;;;;;;11.32;91.70;102349.10;105524;1270;60880;-74
2022/10/07 05:02:02;;;;;;;25.90;12.40;;;;;;;11.36;91.23;102348.88;105496;1270;62815;-75
2022/10/07 05:04:32;;;;;;;30.40;13.80;;;;;;;11.42;90.97;102354.19;105430;1271;61888;-75
2022/10/07 05:07:02;;;;;;;28.60;14.00;;;;;;;11.47;91.01;102354.11;105441;1270;59101;-75
2022/10/07 05:09:33;;;;;;;25.10;13.90;;;;;;;11.52;91.07;102353.70;105348;1272;62406;-74
2022/10/07 05:12:02;;;;;;;25.70;12.50;;;;;;;11.58;90.79;102355.68;105166;1266;419738;-75
2022/10/07 05:14:32;;;;;;;25.60;12.40;;;;;;;11.62;90.63;102356.67;105421;1268;60880;-76
2022/10/07 05:17:02;;;;;;;27.60;12.50;;;;;;;11.67;90.59;102359.04;105408;1271;62739;-76
2022/10/07 05:19:33;;;;;;;23.00;12.20;;;;;;;11.74;90.21;102366.54;105519;1270;72054;-76
2022/10/07 05:22:02;;;;;;;28.30;13.10;;;;;;;11.80;89.94;102363.98;105426;1266;59601;-75
2022/10/07 05:24:31;;;;;;;24.90;12.70;;;;;;;11.86;89.74;102362.81;105439;1267;71523;-75
2022/10/07 05:27:00;;;;;;;37.10;13.90;;;;;;;11.90;89.55;102369.20;105392;1263;60873;-75
2022/10/07 05:29:28;;;;;;;26.60;13.80;;;;;;;11.96;89.11;102371.73;105331;1265;61106;-74
2022/10/07 05:31:58;;;;;;;30.50;13.70;;;;;;;11.99;89.29;102372.27;105469;1271;62929;-75
2022/10/07 05:34:32;;;;;;;28.20;12.70;;;;;;;12.03;89.12;102377.31;105333;1274;61440;-76
2022/10/07 05:37:01;;;;;;;29.70;13.90;;;;;;;12.09;89.05;102377.67;105433;1267;60211;-75
2022/10/07 05:39:29;;;;;;;25.50;14.50;;;;;;;12.16;88.62;102381.83;105376;1270;73163;-75
2022/10/07 05:42:04;;;;;;;24.30;13.80;;;;;;;12.24;88.15;102384.04;105474;1268;59261;-74
2022/10/07 05:44:37;;;;;;;;;;;;;;;12.34;87.85;102385.28;105548;1268;59111;-80
2022/10/07 05:47:06;;;;;;;29.70;14.70;;;;;;;12.45;87.29;102385.91;105480;1266;72721;-75
2022/10/07 05:49:34;;;;;;;26.80;14.50;;;;;;;12.56;87.17;102386.52;105582;1275;72381;-76
2022/10/07 05:52:04;;;;;;;28.30;14.10;;;;;;;12.69;86.50;102387.73;105288;1267;62071;-75
2022/10/07 05:54:32;;;;;;;32.00;15.60;;;;;;;12.85;85.78;102389.33;105493;1269;73415;-76
2022/10/07 05:57:01;;;;;;;30.70;14.10;;;;;;;12.99;85.02;102390.45;105473;1268;60680;-76
2022/10/07 05:59:31;;;;;;;23.70;12.80;;;;;;;13.13;85.10;102388.42;105500;1274;60376;-76
2022/10/07 06:02:00;;;;;;;29.20;13.70;;;;;;;13.30;84.68;102394.50;105559;1261;72214;-76
2022/10/07 06:04:29;;;;;;;33.40;14.30;;;;;;;13.43;84.48;102393.75;105486;1263;71700;-78
2022/10/07 06:06:57;;;;;;;25.40;14.30;;;;;;;13.56;83.91;102394.76;105518;1261;60973;-75
2022/10/07 06:15:08;;;;;;;26.70;14.00;;;;;;;13.99;81.70;102398.82;105334;1273;57525;-76
2022/10/07 06:17:42;;;;;;;28.20;13.50;;;;;;;14.15;81.81;102398.56;105526;1263;63428;-77
2022/10/07 06:20:14;;;;;;;20.60;11.10;;;;;;;14.24;81.57;102396.84;105493;1270;72015;-75
2022/10/07 06:22:43;;;;;;;17.50;10.70;;;;;;;14.43;81.49;102398.27;105497;1269;59767;-78
2022/10/07 06:25:12;;;;;;;21.40;11.50;;;;;;;14.54;81.35;102400.59;105509;1266;62832;-77
2022/10/07 06:27:43;;;;;;;20.90;9.80;;;;;;;14.63;81.30;102397.05;105521;1268;59066;-75
2022/10/07 06:30:18;;;;;;;17.10;8.80;;;;;;;14.72;81.42;102398.95;105417;1275;57531;-75
2022/10/07 06:32:47;;;;;;;18.90;8.90;;;;;;;14.81;81.30;102400.66;105523;1262;62714;-75
2022/10/07 06:35:17;;;;;;;18.60;9.50;;;;;;;14.89;81.15;102397.70;105595;1266;60744;-74
2022/10/07 06:37:46;;;;;;;18.10;9.70;;;;;;;15.03;80.92;102397.67;105592;1275;59114;-79
2022/10/07 06:40:16;;;;;;;15.40;9.50;;;;;;;15.17;80.43;102398.51;105521;1270;72950;-76
2022/10/07 06:42:44;;;;;;;12.70;8.30;;;;;;;15.33;80.21;102399.92;105513;1270;60249;-80
2022/10/07 06:45:24;;;;;;;14.90;8.50;;;;;;;15.51;79.57;102393.27;105427;1269;60675;-78
2022/10/07 06:47:53;;;;;;;11.20;8.00;;;;;;;15.53;79.18;102392.80;105387;1263;62522;-75
2022/10/07 06:50:22;;;;;;;15.10;7.60;;;;;;;15.73;79.51;102392.52;105371;1266;70519;-76
2022/10/07 06:52:50;;;;;;;13.80;8.30;;;;;;;15.85;77.97;102397.66;105193;1275;60128;-76
2022/10/07 06:55:19;;;;;;;12.80;8.60;;;;;;;15.90;77.74;102398.21;105401;1275;72406;-78
2022/10/07 06:57:48;;;;;;;12.30;8.20;;;;;;;16.03;76.80;102400.35;105355;1266;61569;-77
2022/10/07 07:00:18;;;;;;;11.10;7.70;;;;;;;16.21;76.41;102399.48;105375;1272;58923;-76
2022/10/07 07:02:47;;;;;;;14.80;8.00;;;;;;;16.31;76.20;102397.48;105374;1266;62683;-82
2022/10/07 07:05:16;;;;;;;13.40;8.00;;;;;;;16.43;75.64;102394.06;105319;1270;71590;-75
2022/10/07 07:07:45;;;;;;;12.50;7.90;;;;;;;16.59;75.58;102397.80;105343;1265;70360;-80
2022/10/07 07:10:14;;;;;;;305.60;46.00;;;;;;;16.63;74.31;102393.50;105401;1270;65652;-81
2022/10/07 07:12:45;;;;;;;60.50;13.30;;;;;;;16.70;72.71;102392.11;105432;1264;62316;-77
2022/10/07 07:15:15;;;;;;;44.60;11.30;;;;;;;16.77;72.88;102395.34;105388;1262;61479;-78
2022/10/07 07:17:43;;;;;;;111.90;18.60;;;;;;;16.85;72.92;102390.54;105482;1269;72120;-76
2022/10/07 07:20:14;;;;;;;211.10;29.20;;;;;;;17.01;72.39;102392.93;105361;1266;71043;-77
2022/10/07 07:22:43;;;;;;;409.30;54.50;;;;;;;16.98;71.60;102394.67;105435;1261;70695;-75
2022/10/07 07:25:12;;;;;;;27.50;8.80;;;;;;;16.99;71.40;102390.37;105394;1266;63544;-78
2022/10/07 07:27:41;;;;;;;45.20;11.10;;;;;;;17.06;71.72;102388.14;105440;1267;60889;-77
2022/10/07 07:30:12;;;;;;;19.20;8.80;;;;;;;17.16;71.35;102386.67;105883;1264;59147;-79
2022/10/07 07:32:42;;;;;;;16.50;8.40;;;;;;;17.28;71.16;102387.52;105813;1272;62169;-80
2022/10/07 07:35:10;;;;;;;15.20;7.50;;;;;;;17.40;71.26;102388.58;105395;1263;71718;-77
2022/10/07 07:37:40;;;;;;;11.90;7.60;;;;;;;17.44;70.60;102385.30;105398;1272;59893;-80
2022/10/07 07:40:09;;;;;;;13.10;7.90;;;;;;;17.45;70.01;102381.88;105427;1266;73687;-79
2022/10/07 07:42:38;;;;;;;21.90;8.20;;;;;;;17.60;69.91;102378.78;105383;1263;58779;-78
2022/10/07 07:45:08;;;;;;;14.40;8.40;;;;;;;17.78;68.99;102377.67;105441;1261;59560;-80
2022/10/07 07:47:36;;;;;;;13.60;7.40;;;;;;;17.94;69.08;102376.09;105325;1269;62622;-78
2022/10/07 07:50:06;;;;;;;12.30;7.40;;;;;;;17.88;68.37;102369.11;105368;1266;61540;-78
2022/10/07 07:52:35;;;;;;;11.70;7.60;;;;;;;17.94;68.43;102370.21;105417;1275;60375;-78
2022/10/07 07:55:05;;;;;;;13.40;7.70;;;;;;;17.98;68.39;102368.17;105453;1266;62410;-78
2022/10/07 07:57:34;;;;;;;13.00;8.00;;;;;;;18.12;67.56;102366.36;105375;1270;61216;-78
2022/10/07 08:00:06;;;;;;;19.80;8.60;;;;;;;18.26;67.00;102366.32;105476;1263;60587;-80
2022/10/07 08:02:52;;;;;;;10.20;6.40;;;;;;;18.37;66.88;102364.20;105500;1270;65017;-78
2022/10/07 08:05:20;;;;;;;27.10;9.80;;;;;;;18.65;66.37;102362.35;105450;1270;72141;-81
2022/10/07 08:07:54;;;;;;;18.70;8.00;;;;;;;18.85;65.63;102359.86;105516;1269;71218;-79
2022/10/07 08:10:23;;;;;;;13.80;7.30;;;;;;;19.07;65.28;102360.67;105549;1269;64468;-79
2022/10/07 08:12:52;;;;;;;13.20;7.50;;;;;;;19.19;63.74;102361.63;105407;1269;61105;-81
2022/10/07 08:15:20;;;;;;;9.80;6.20;;;;;;;19.06;63.13;102363.22;105348;1275;57807;-76
2022/10/07 08:17:49;;;;;;;11.90;6.70;;;;;;;19.08;63.27;102364.50;105469;1277;62223;-80
2022/10/07 08:20:18;;;;;;;24.80;7.70;;;;;;;19.29;62.94;102362.55;105469;1275;72029;-77
2022/10/07 08:22:48;;;;;;;12.70;7.30;;;;;;;19.42;62.37;102354.21;105580;1270;70183;-78
2022/10/07 08:25:17;;;;;;;11.40;6.90;;;;;;;19.51;62.30;102358.55;105520;1269;62628;-78
2022/10/07 08:27:47;;;;;;;9.10;7.20;;;;;;;19.60;62.85;102359.45;105547;1271;59005;-81
2022/10/07 08:30:16;;;;;;;10.20;7.00;;;;;;;19.57;62.69;102359.11;105525;1267;60344;-77
2022/10/07 08:32:46;;;;;;;12.40;7.40;;;;;;;19.58;62.67;102358.34;105597;1270;61975;-80
2022/10/07 08:35:15;;;;;;;12.90;7.60;;;;;;;19.60;62.58;102355.42;105537;1266;71431;-80
2022/10/07 08:37:43;;;;;;;12.80;7.20;;;;;;;19.48;61.99;102346.90;105554;1265;59020;-79
2022/10/07 08:40:16;;;;;;;19.20;7.80;;;;;;;19.50;62.04;102346.31;105517;1270;64482;-79
2022/10/07 08:42:46;;;;;;;12.30;6.80;;;;;;;19.64;62.06;102346.55;105539;1266;59705;-78
2022/10/07 08:45:28;;;;;;;9.30;6.50;;;;;;;19.73;61.33;102345.66;105501;1264;59112;-78
2022/10/07 08:48:02;;;;;;;10.60;6.50;;;;;;;19.78;61.62;102345.20;105574;1269;73815;-78
2022/10/07 08:50:46;;;;;;;10.50;6.60;;;;;;;19.66;61.34;102348.68;105494;1270;71870;-79
2022/10/07 08:53:28;;;;;;;11.10;6.50;;;;;;;19.66;61.22;102353.14;105503;1265;70677;-81
2022/10/07 08:56:18;;;;;;;9.50;6.10;;;;;;;19.38;61.91;102351.73;105545;1263;73255;-79
2022/10/07 08:58:57;;;;;;;9.90;6.40;;;;;;;19.36;62.41;102349.32;105377;1275;57500;-80
2022/10/07 09:01:34;;;;;;;10.20;6.60;;;;;;;19.36;62.53;102346.29;105580;1267;61239;-77
2022/10/07 09:04:29;;;;;;;11.00;6.90;;;;;;;19.38;62.76;102344.20;105474;1267;63253;-76
2022/10/07 09:07:13;;;;;;;9.30;6.30;;;;;;;19.41;62.65;102341.64;105559;1265;61640;-78
2022/10/07 09:09:55;;;;;;;10.60;6.50;;;;;;;19.45;62.19;102342.30;105533;1261;70428;-75
2022/10/07 09:12:53;;;;;;;9.20;5.80;;;;;;;19.45;62.19;102344.29;105514;1264;63042;-75
2022/10/07 09:15:43;;;;;;;13.30;6.50;;;;;;;19.45;62.28;102344.46;105558;1266;59205;-76
2022/10/07 09:18:30;;;;;;;7.70;5.50;;;;;;;19.50;61.45;102345.29;105469;1266;58971;-78
2022/10/07 09:21:04;;;;;;;11.90;6.40;;;;;;;19.53;61.16;102346.63;105450;1266;62741;-76
2022/10/07 09:23:35;;;;;;;9.70;5.60;;;;;;;19.50;60.84;102343.84;105437;1274;72097;-78
2022/10/07 09:26:15;;;;;;;10.00;5.80;;;;;;;19.68;61.10;102340.70;105385;1262;60266;-77
2022/10/07 09:28:44;;;;;;;9.00;5.40;;;;;;;19.88;60.72;102335.63;105483;1266;63240;-78
2022/10/07 09:31:15;;;;;;;6.20;4.70;;;;;;;19.97;60.45;102330.88;105475;1274;60161;-80
2022/10/07 09:33:48;;;;;;;7.20;5.30;;;;;;;20.06;60.05;102327.36;105497;1262;59338;-78
2022/10/07 09:36:17;;;;;;;10.00;6.30;;;;;;;20.10;59.68;102322.77;105480;1269;72715;-76
2022/10/07 09:38:51;;;;;;;14.10;8.30;;;;;;;20.04;59.83;102318.73;105467;1274;72646;-79
2022/10/07 09:41:31;;;;;;;9.40;5.60;;;;;;;19.80;59.34;102313.05;105554;1266;71722;-82
2022/10/07 09:44:14;;;;;;;9.60;6.50;;;;;;;20.01;59.70;102310.83;105523;1263;74575;-77
2022/10/07 09:46:51;;;;;;;10.90;5.60;;;;;;;20.10;59.72;102316.05;105547;1274;58277;-79
2022/10/07 09:49:37;;;;;;;8.70;5.60;;;;;;;20.04;59.72;102314.65;105483;1274;60321;-77
2022/10/07 09:52:15;;;;;;;9.30;5.10;;;;;;;19.87;60.08;102315.26;105522;1266;72644;-78
2022/10/07 09:54:47;;;;;;;9.20;5.10;;;;;;;19.96;59.74;102310.61;105312;1263;61327;-78
2022/10/07 09:57:24;;;;;;;7.60;5.20;;;;;;;19.91;59.65;102306.44;105528;1265;69008;-77
2022/10/07 10:00:25;;;;;;;7.80;5.20;;;;;;;19.92;59.92;102304.94;105454;1264;63580;-78
2022/10/07 10:03:06;;;;;;;9.20;5.40;;;;;;;19.92;59.92;102301.20;105473;1274;60766;-77
2022/10/07 10:05:50;;;;;;;11.20;5.70;;;;;;;19.95;59.55;102299.71;105463;1274;60879;-77
2022/10/07 10:08:35;;;;;;;7.80;4.60;;;;;;;20.00;59.28;102296.05;105411;1274;62370;-76
2022/10/07 10:11:29;;;;;;;12.90;5.30;;;;;;;20.13;59.49;102296.56;105463;1274;61841;-75
2022/10/07 10:14:53;;;;;;;8.90;5.00;;;;;;;20.33;58.91;102294.79;105540;1268;59757;-77
2022/10/07 10:17:34;;;;;;;6.40;4.70;;;;;;;20.82;58.99;102288.07;105121;1271;63178;-77
2022/10/07 10:20:34;;;;;;;8.80;4.60;;;;;;;21.23;55.67;102285.02;105500;1263;60402;-77
2022/10/07 10:23:33;;;;;;;6.10;4.10;;;;;;;21.56;55.70;102282.47;105647;1262;59191;-79
2022/10/07 10:26:26;;;;;;;5.80;4.40;;;;;;;21.79;53.99;102279.58;105524;1269;74049;-79
2022/10/07 10:29:34;;;;;;;9.20;4.10;;;;;;;21.71;52.99;102276.44;105558;1274;71275;-72
2022/10/07 10:32:30;;;;;;;6.50;4.30;;;;;;;21.77;53.26;102277.97;105458;1271;59386;-73
2022/10/07 10:35:02;;;;;;;7.20;4.50;;;;;;;21.86;53.98;102271.62;105344;1266;64024;-74
2022/10/07 10:37:40;;;;;;;9.70;4.80;;;;;;;22.07;53.21;102266.83;105301;1270;61182;-74
2022/10/07 10:40:22;;;;;;;6.70;4.00;;;;;;;22.07;51.93;102265.21;105329;1266;61878;-75
2022/10/07 10:43:21;;;;;;;5.70;4.40;;;;;;;22.20;51.24;102258.44;105351;1267;74880;-74
2022/10/07 10:46:12;;;;;;;10.60;4.20;;;;;;;22.69;51.21;102255.70;105258;1275;72449;-74
2022/10/07 10:49:09;;;;;;;5.30;3.80;;;;;;;23.12;50.07;102253.57;105392;1274;69602;-76
2022/10/07 10:52:05;;;;;;;4.90;3.60;;;;;;;23.05;48.48;102251.23;105366;1264;73416;-71
2022/10/07 11:02:18;;;;;;;5.50;3.50;;;;;;;24.25;46.52;102238.17;102749;1296;601400;-76
2022/10/07 11:05:18;;;;;;;4.90;3.00;;;;;;;24.22;45.38;102231.77;105378;1267;60467;-77
2022/10/07 11:08:03;;;;;;;8.30;3.30;;;;;;;23.66;46.40;102234.10;105246;1269;61552;-76
2022/10/07 11:10:53;;;;;;;6.00;3.30;;;;;;;23.93;46.38;102228.62;105140;1274;71458;-76
2022/10/07 11:13:39;;;;;;;6.20;2.70;;;;;;;23.57;45.39;102226.31;105289;1276;71883;-75
2022/10/07 11:16:51;;;;;;;6.40;3.00;;;;;;;23.01;45.81;102225.88;105280;1267;252052;-74
2022/10/07 11:19:48;;;;;;;3.60;2.80;;;;;;;22.54;47.21;102227.90;105135;1272;72730;-74
2022/10/07 11:22:31;;;;;;;10.20;4.10;;;;;;;22.52;47.86;102225.84;105122;1273;62019;-74
2022/10/07 11:25:31;;;;;;;7.60;4.10;;;;;;;22.32;49.13;102225.80;105377;1269;57196;-74
2022/10/07 11:28:20;;;;;;;8.00;4.60;;;;;;;21.58;52.01;102225.59;105569;1267;70868;-74
2022/10/07 11:31:04;;;;;;;7.00;5.00;;;;;;;21.06;54.26;102223.74;105493;1270;71740;-75
2022/10/07 11:34:20;;;;;;;9.00;5.10;;;;;;;20.96;54.30;102221.41;105474;1267;60847;-75
2022/10/07 11:37:14;;;;;;;7.10;4.90;;;;;;;20.65;55.27;102214.76;105483;1267;72958;-75
2022/10/07 11:39:43;;;;;;;9.50;5.10;;;;;;;20.54;55.56;102208.46;105514;1275;57441;-75
2022/10/07 11:42:39;;;;;;;11.90;5.80;;;;;;;20.37;56.87;102212.67;105527;1270;57639;-76
2022/10/07 11:45:18;;;;;;;8.50;5.30;;;;;;;20.35;56.01;102212.63;105544;1267;71811;-77
2022/10/07 11:48:04;;;;;;;6.30;4.70;;;;;;;20.26;57.22;102211.86;105516;1267;61734;-71
2022/10/07 11:50:46;;;;;;;7.10;5.20;;;;;;;20.25;57.00;102212.89;105448;1266;59906;-72
2022/10/07 11:53:26;;;;;;;8.30;5.60;;;;;;;20.23;57.08;102207.50;105438;1273;73014;-73
2022/10/07 11:56:27;;;;;;;7.90;5.30;;;;;;;20.19;57.95;102207.58;105547;1273;61720;-73
2022/10/07 11:59:05;;;;;;;10.50;5.30;;;;;;;20.25;57.34;102209.14;105487;1264;61436;-73
2022/10/07 12:01:34;;;;;;;9.90;5.20;;;;;;;20.24;57.25;102199.88;105515;1272;62523;-71